Time;durP1;ratioP1;P1;durP2;ratioP2;P2;SDS_P1;SDS_P2;PMS_P1;PMS_P2;Temp;Humidity;BMP_temperature;BMP_pressure;BME280_temperature;BME280_humidity;BME280_pressure;Samples;Min_cycle;Max_cycle;Signal;HPM_P1;HPM_P2
2020/12/17 06:58:41;;;;;;;28.85;15.95;;;;;;;6.37;94.48;102575.55;1782564;80;22816;-84
2020/12/17 07:01:29;;;;;;;49.30;22.60;;;;;;;6.35;94.04;102574.71;1757237;80;21006;-87
2020/12/17 07:04:00;;;;;;;50.45;25.50;;;;;;;6.40;93.40;102572.06;1757196;81;21200;-87
2020/12/17 07:06:36;;;;;;;57.78;24.15;;;;;;;6.43;92.75;102570.72;1757200;81;21559;-87
2020/12/17 07:09:07;;;;;;;47.67;20.60;;;;;;;6.47;92.32;102567.64;1757791;81;20926;-87
2020/12/17 07:11:45;;;;;;;34.35;19.45;;;;;;;6.52;91.87;102578.71;1757701;81;21170;-88
2020/12/17 07:14:30;;;;;;;33.55;18.30;;;;;;;6.56;91.39;102575.20;1757837;81;21513;-86
2020/12/17 07:17:04;;;;;;;27.98;15.63;;;;;;;6.59;90.95;102578.58;1757688;80;21246;-84
2020/12/17 07:19:48;;;;;;;32.80;15.68;;;;;;;6.64;90.42;102570.73;1757513;80;20993;-85
2020/12/17 07:22:17;;;;;;;30.10;15.58;;;;;;;6.66;89.95;102575.02;1757864;81;20978;-85
2020/12/17 07:24:50;;;;;;;30.90;15.05;;;;;;;6.70;89.51;102570.64;1725184;81;21099;-85
2020/12/17 07:27:24;;;;;;;28.23;14.30;;;;;;;6.76;89.33;102575.68;1751430;80;20935;-85
2020/12/17 07:30:00;;;;;;;27.27;14.18;;;;;;;6.80;89.04;102577.30;1750374;81;21422;-86
2020/12/17 07:32:46;;;;;;;24.60;13.30;;;;;;;6.83;88.63;102577.23;1739069;81;21473;-85
2020/12/17 07:35:17;;;;;;;26.80;12.60;;;;;;;6.88;88.25;102577.58;1738661;81;21088;-85
2020/12/17 07:37:58;;;;;;;27.82;12.50;;;;;;;6.93;87.88;102569.28;1757565;81;21002;-85
2020/12/17 07:40:43;;;;;;;23.42;12.93;;;;;;;6.97;87.50;102579.11;1757600;81;20970;-84
2020/12/17 07:43:14;;;;;;;24.32;12.18;;;;;;;7.02;87.27;102574.69;1757645;81;21190;-86
2020/12/17 07:45:55;;;;;;;21.12;11.57;;;;;;;7.05;86.69;102572.04;1757565;81;20957;-86
2020/12/17 07:48:54;;;;;;;28.12;12.80;;;;;;;7.09;86.17;102570.25;1748567;81;20958;-84
2020/12/17 07:51:31;;;;;;;29.30;13.50;;;;;;;7.10;85.78;102569.37;1757697;81;21110;-83
2020/12/17 07:54:04;;;;;;;30.68;14.10;;;;;;;7.12;85.47;102571.03;1757754;81;20953;-86
2020/12/17 07:56:32;;;;;;;29.10;14.95;;;;;;;7.16;85.18;102571.82;1758614;81;21324;-85
2020/12/17 07:59:07;;;;;;;31.65;15.35;;;;;;;7.18;84.80;102567.50;1755054;81;20973;-85
2020/12/17 08:01:39;;;;;;;24.32;14.03;;;;;;;7.18;84.50;102570.08;1758067;81;21560;-86
2020/12/17 08:04:10;;;;;;;30.40;15.55;;;;;;;7.20;84.38;102569.59;1757820;81;20946;-85
2020/12/17 08:06:38;;;;;;;29.15;14.80;;;;;;;7.22;83.96;102564.80;1743308;81;20970;-85
2020/12/17 08:09:19;;;;;;;29.15;14.93;;;;;;;7.26;83.92;102572.03;1724098;83;21228;-84
2020/12/17 08:11:55;;;;;;;25.85;14.53;;;;;;;7.28;83.64;102574.13;1744808;81;20969;-85
2020/12/17 08:14:25;;;;;;;28.25;13.88;;;;;;;7.29;83.46;102566.80;1761517;81;20970;-85
2020/12/17 08:17:07;;;;;;;30.08;15.88;;;;;;;7.34;83.59;102573.55;1761206;81;20939;-85
2020/12/17 08:19:35;;;;;;;32.85;16.17;;;;;;;7.36;83.66;102576.13;1754793;80;20943;-85
2020/12/17 08:22:06;;;;;;;31.62;17.75;;;;;;;7.37;83.54;102570.08;1749479;81;22051;-84
2020/12/17 08:24:36;;;;;;;26.70;17.17;;;;;;;7.37;83.39;102574.78;1704483;81;21104;-85
2020/12/17 08:27:05;;;;;;;29.70;16.90;;;;;;;7.38;83.43;102570.47;1758653;81;20982;-86
2020/12/17 08:29:38;;;;;;;27.58;16.40;;;;;;;7.37;83.26;102569.61;1757536;81;21549;-86
2020/12/17 08:32:08;;;;;;;28.55;16.15;;;;;;;7.42;83.01;102573.40;1757386;81;20899;-85
2020/12/17 08:34:36;;;;;;;23.45;15.28;;;;;;;7.50;82.73;102568.89;1757807;81;21442;-86
2020/12/17 08:37:05;;;;;;;23.55;15.03;;;;;;;7.56;82.40;102566.20;1759119;81;20958;-86
2020/12/17 08:39:33;;;;;;;22.65;14.18;;;;;;;7.62;82.16;102566.48;1758677;81;20966;-87
2020/12/17 08:42:01;;;;;;;21.27;13.15;;;;;;;7.66;82.06;102559.91;1752593;81;20946;-86
2020/12/17 08:44:31;;;;;;;20.23;13.13;;;;;;;7.67;81.76;102556.88;1748367;81;21538;-86
2020/12/17 08:50:07;;;;;;;23.60;15.20;;;;;;;7.75;81.05;102557.12;1846276;72;27723;-85
2020/12/17 08:52:37;;;;;;;24.63;14.68;;;;;;;7.85;80.77;102560.30;1811293;77;21053;-87
2020/12/17 08:55:11;;;;;;;25.32;12.85;;;;;;;7.98;80.27;102562.55;1845157;76;21341;-86
2020/12/17 08:57:39;;;;;;;17.70;11.97;;;;;;;8.06;79.86;102557.20;1820115;77;21093;-83
2020/12/17 09:00:14;;;;;;;18.95;12.13;;;;;;;8.12;79.17;102561.36;1790463;79;21190;-84
2020/12/17 09:02:44;;;;;;;23.35;14.63;;;;;;;8.14;78.39;102556.98;1815462;77;21263;-83
2020/12/17 09:05:13;;;;;;;22.35;14.87;;;;;;;8.16;78.13;102561.25;1830322;77;21223;-84
2020/12/17 09:07:46;;;;;;;22.42;14.60;;;;;;;8.13;77.84;102557.45;1791534;78;21456;-85
2020/12/17 09:10:14;;;;;;;23.60;13.03;;;;;;;8.14;77.81;102563.45;1799440;77;21071;-85
2020/12/17 09:12:47;;;;;;;18.12;11.53;;;;;;;8.15;77.77;102559.55;1808192;78;21212;-86
2020/12/17 09:15:21;;;;;;;19.32;11.33;;;;;;;8.17;77.68;102560.34;1805888;77;21167;-82
2020/12/17 09:17:49;;;;;;;15.45;10.15;;;;;;;8.21;77.84;102554.22;1838494;77;21156;-80
2020/12/17 09:20:20;;;;;;;17.50;10.03;;;;;;;8.25;77.85;102553.69;1809661;77;21555;-83
2020/12/17 09:22:48;;;;;;;15.20;10.18;;;;;;;8.24;77.40;102552.84;1792546;77;21667;-85
2020/12/17 09:25:20;;;;;;;19.30;9.80;;;;;;;8.22;77.56;102549.45;1801985;78;21073;-84
2020/12/17 09:27:48;;;;;;;16.25;9.73;;;;;;;8.24;77.76;102551.98;1783555;77;21615;-83
2020/12/17 09:30:19;;;;;;;15.18;8.68;;;;;;;8.24;77.57;102545.08;1801649;77;21131;-85
2020/12/17 09:32:53;;;;;;;14.80;8.43;;;;;;;8.24;77.72;102545.08;1790067;78;23293;-84
2020/12/17 09:35:23;;;;;;;16.85;9.63;;;;;;;8.27;77.82;102540.27;1802495;78;21143;-82
2020/12/17 09:38:04;;;;;;;13.18;9.50;;;;;;;8.33;77.97;102542.72;1806630;77;21146;-85
2020/12/17 09:40:32;;;;;;;13.95;9.55;;;;;;;8.31;77.84;102540.19;1823810;77;21053;-83
2020/12/17 09:43:10;;;;;;;13.45;9.05;;;;;;;8.31;77.66;102541.92;1798360;77;21163;-84
2020/12/17 09:45:48;;;;;;;13.70;8.60;;;;;;;8.25;77.56;102534.30;1810607;77;22138;-82
2020/12/17 09:48:28;;;;;;;14.18;9.90;;;;;;;8.27;77.92;102533.36;1817397;76;21188;-85
2020/12/17 09:51:08;;;;;;;14.20;9.33;;;;;;;8.35;78.06;102535.78;1822747;77;21145;-83
2020/12/17 09:53:42;;;;;;;16.95;9.60;;;;;;;8.41;78.01;102536.47;1836387;76;21096;-82
2020/12/17 09:58:52;;;;;;;17.02;10.82;;;;;;;8.47;77.39;102536.30;1955257;72;22291;-85
2020/12/17 10:01:31;;;;;;;16.52;10.15;;;;;;;8.46;77.50;102537.62;1897964;73;20988;-86
2020/12/17 10:04:17;;;;;;;12.65;8.90;;;;;;;8.50;77.75;102533.62;1915355;74;21357;-85
2020/12/17 10:06:45;;;;;;;16.60;10.65;;;;;;;8.58;77.70;102529.98;1922258;74;21550;-84
2020/12/17 10:09:15;;;;;;;14.28;10.00;;;;;;;8.58;77.29;102525.66;1931745;72;21139;-83
2020/12/17 10:11:51;;;;;;;17.20;10.35;;;;;;;8.57;77.13;102522.66;1899981;73;21743;-83
2020/12/17 10:14:19;;;;;;;17.70;10.23;;;;;;;8.59;76.99;102522.16;1900662;73;20965;-85
2020/12/17 10:16:58;;;;;;;13.78;10.30;;;;;;;8.60;76.69;102519.98;1928154;73;21411;-83
2020/12/17 10:19:30;;;;;;;15.28;9.68;;;;;;;8.60;76.67;102517.40;1911031;73;21674;-83
2020/12/17 10:22:04;;;;;;;13.88;9.08;;;;;;;8.63;76.83;102517.31;1903642;73;20992;-84
2020/12/17 10:24:32;;;;;;;14.93;9.60;;;;;;;8.70;76.86;102514.10;1920309;74;20937;-81
2020/12/17 10:27:01;;;;;;;16.17;9.20;;;;;;;8.71;76.55;102510.16;1890764;74;21055;-83
2020/12/17 10:29:31;;;;;;;15.68;9.85;;;;;;;8.73;76.26;102510.98;1885494;74;21348;-85
2020/12/17 10:32:14;;;;;;;14.07;9.73;;;;;;;8.74;76.34;102505.36;1883844;73;20907;-83
2020/12/17 10:34:43;;;;;;;14.35;10.13;;;;;;;8.77;76.36;102506.12;1888002;74;21168;-85
2020/12/17 10:37:13;;;;;;;14.53;9.30;;;;;;;8.80;76.38;102501.30;1900886;74;21206;-83
2020/12/17 10:39:42;;;;;;;14.43;8.80;;;;;;;8.87;76.42;102501.05;1921556;73;20920;-84
2020/12/17 10:42:11;;;;;;;17.17;9.85;;;;;;;8.95;76.08;102503.42;1920217;74;21155;-84
2020/12/17 10:44:41;;;;;;;14.80;9.80;;;;;;;8.99;75.67;102502.01;1920858;73;21040;-83
2020/12/17 10:47:12;;;;;;;15.60;10.63;;;;;;;9.00;75.64;102500.23;1915820;73;21692;-84
2020/12/17 10:49:40;;;;;;;15.10;9.63;;;;;;;9.00;75.45;102496.35;1914610;73;20937;-83
2020/12/17 10:52:09;;;;;;;17.52;10.30;;;;;;;9.04;75.36;102488.45;1896779;74;21621;-83
2020/12/17 10:54:41;;;;;;;16.45;9.53;;;;;;;9.08;75.18;102489.66;1903832;74;22012;-84
2020/12/17 10:57:20;;;;;;;13.45;9.18;;;;;;;9.12;74.82;102491.27;1886323;74;20929;-85
2020/12/17 11:00:06;;;;;;;15.53;9.48;;;;;;;9.16;74.76;102481.22;1886934;76;21103;-86
2020/12/17 11:05:25;;;;;;;14.03;9.38;;;;;;;9.29;74.40;102482.06;1769234;78;22825;-87
2020/12/17 11:07:54;;;;;;;16.25;10.55;;;;;;;9.24;74.48;102483.96;1725909;82;21038;-86
2020/12/17 11:13:14;;;;;;;14.40;9.75;;;;;;;9.31;74.73;102475.11;1762184;79;22835;-86
2020/12/17 11:18:26;;;;;;;15.72;9.45;;;;;;;9.43;74.89;102467.37;1776886;79;22513;-81
2020/12/17 11:20:55;;;;;;;16.93;10.93;;;;;;;9.45;74.69;102472.05;1743079;81;21142;-82
2020/12/17 11:23:36;;;;;;;19.02;10.43;;;;;;;9.47;74.77;102473.72;1690224;82;21527;-84
2020/12/17 11:26:06;;;;;;;18.35;11.78;;;;;;;9.47;74.30;102457.31;1744195;82;20939;-84
2020/12/17 11:28:37;;;;;;;17.07;11.05;;;;;;;9.50;73.81;102466.28;1723842;81;20963;-85
2020/12/17 11:31:07;;;;;;;16.27;10.82;;;;;;;9.53;73.57;102465.73;1681876;85;21223;-84
2020/12/17 11:33:35;;;;;;;15.45;9.33;;;;;;;9.58;73.40;102461.69;1684522;84;21533;-83
2020/12/17 11:36:05;;;;;;;12.95;8.68;;;;;;;9.58;72.64;102462.53;1676664;85;21421;-85
2020/12/17 11:38:34;;;;;;;16.52;10.10;;;;;;;9.57;72.56;102466.02;1676778;85;21174;-85
2020/12/17 11:41:27;;;;;;;14.75;9.80;;;;;;;9.63;72.55;102458.50;1835064;78;22832;-85
2020/12/17 11:43:56;;;;;;;16.62;9.98;;;;;;;9.56;72.32;102463.48;1796187;79;21577;-82
2020/12/17 11:46:26;;;;;;;15.68;9.55;;;;;;;9.49;72.28;102465.88;1794147;79;21360;-85
2020/12/17 11:48:57;;;;;;;16.70;10.03;;;;;;;9.43;72.18;102462.20;1790271;79;21696;-84
2020/12/17 11:51:25;;;;;;;14.97;10.10;;;;;;;9.40;72.42;102462.30;1783936;80;20997;-84
2020/12/17 11:53:56;;;;;;;14.83;9.55;;;;;;;9.37;72.76;102461.95;1783033;80;21073;-83
2020/12/17 11:56:26;;;;;;;17.23;10.23;;;;;;;9.35;72.80;102461.13;1791154;78;21041;-86
2020/12/17 11:58:56;;;;;;;13.45;9.80;;;;;;;9.32;72.86;102455.20;1794129;79;22609;-83
2020/12/17 12:02:00;;;;;;;15.20;10.32;;;;;;;9.28;73.06;102453.19;1766573;79;21032;-85
2020/12/17 12:15:21;;;;;;;12.35;9.25;;;;;;;9.31;73.18;102457.42;1812353;77;22234;-85
2020/12/17 12:17:49;;;;;;;13.22;8.75;;;;;;;9.24;73.32;102459.80;1776260;79;21073;-84
2020/12/17 12:20:17;;;;;;;20.88;10.65;;;;;;;9.23;73.58;102465.42;1752397;81;21192;-82
2020/12/17 12:22:46;;;;;;;17.27;10.20;;;;;;;9.19;73.40;102462.52;1754361;80;21838;-82
2020/12/17 12:25:14;;;;;;;17.07;10.43;;;;;;;9.13;73.27;102469.63;1752520;81;21104;-86
2020/12/17 12:27:45;;;;;;;13.40;9.63;;;;;;;9.05;73.29;102467.30;1753284;81;21555;-83
2020/12/17 12:30:13;;;;;;;18.42;9.75;;;;;;;9.05;73.64;102473.77;1752428;81;20950;-84
2020/12/17 12:32:41;;;;;;;14.23;8.83;;;;;;;9.07;73.61;102478.45;1753068;80;21185;-84
2020/12/17 12:35:27;;;;;;;16.42;9.45;;;;;;;9.10;73.73;102476.20;1755482;80;20946;-85
2020/12/17 12:37:55;;;;;;;14.80;9.33;;;;;;;9.10;73.87;102480.94;1752435;81;21155;-83
2020/12/17 12:40:23;;;;;;;13.38;9.25;;;;;;;9.12;73.86;102479.61;1752668;81;21199;-85
2020/12/17 12:42:51;;;;;;;13.70;9.45;;;;;;;9.03;73.70;102483.31;1768197;80;21124;-84
2020/12/17 12:45:19;;;;;;;27.05;13.30;;;;;;;8.95;73.70;102482.72;1756077;79;21187;-86
2020/12/17 12:47:47;;;;;;;30.23;13.43;;;;;;;8.88;74.14;102476.87;1758622;80;21068;-85
2020/12/17 12:50:17;;;;;;;26.90;13.98;;;;;;;8.85;75.35;102483.87;1768357;79;21049;-85
2020/12/17 12:52:45;;;;;;;24.23;12.73;;;;;;;8.82;76.16;102482.67;1779809;80;21233;-85
2020/12/17 12:55:13;;;;;;;27.55;15.90;;;;;;;8.80;76.84;102487.06;1777453;80;21156;-83
2020/12/17 12:57:42;;;;;;;25.82;14.43;;;;;;;8.77;77.33;102486.72;1774485;79;21200;-82
2020/12/17 13:00:10;;;;;;;29.75;15.63;;;;;;;8.76;77.65;102477.24;1757154;80;21060;-83
2020/12/17 13:02:39;;;;;;;29.42;16.17;;;;;;;8.74;77.89;102482.89;1782191;80;21065;-82
2020/12/17 13:05:08;;;;;;;67.27;18.55;;;;;;;8.69;78.24;102483.92;1783772;80;21136;-83
2020/12/17 13:07:37;;;;;;;54.38;16.17;;;;;;;8.64;78.62;102490.55;1786727;80;21129;-86
2020/12/17 13:10:05;;;;;;;30.92;14.18;;;;;;;8.60;79.06;102492.81;1784297;80;22094;-83
2020/12/17 13:12:33;;;;;;;23.73;13.30;;;;;;;8.58;79.31;102497.20;1784535;80;21059;-84
2020/12/17 13:15:00;;;;;;;38.78;14.68;;;;;;;8.55;79.37;102495.14;1794238;79;21041;-85
2020/12/17 13:17:29;;;;;;;31.25;15.40;;;;;;;8.52;79.53;102497.81;1798163;79;20926;-84
2020/12/17 13:19:57;;;;;;;29.77;15.13;;;;;;;8.50;79.71;102497.84;1798650;78;21076;-84
2020/12/17 13:22:26;;;;;;;22.30;14.07;;;;;;;8.48;79.87;102497.91;1798264;79;21240;-84
2020/12/17 13:24:55;;;;;;;54.20;16.65;;;;;;;8.46;79.89;102501.40;1796080;79;20986;-85
2020/12/17 13:27:26;;;;;;;44.63;17.25;;;;;;;8.43;80.00;102498.45;1797546;79;21100;-85
2020/12/17 13:29:54;;;;;;;60.92;20.27;;;;;;;8.43;80.26;102501.48;1798279;79;21001;-84
2020/12/17 13:32:22;;;;;;;34.55;17.87;;;;;;;8.42;80.38;102503.69;1777640;79;21535;-85
2020/12/17 13:34:50;;;;;;;36.73;16.48;;;;;;;8.39;80.50;102506.37;1781193;79;21189;-84
2020/12/17 13:37:18;;;;;;;29.23;14.73;;;;;;;8.39;80.55;102514.13;1798189;79;21124;-84
2020/12/17 13:39:46;;;;;;;32.88;16.85;;;;;;;8.39;80.71;102518.00;1798098;79;20973;-82
2020/12/17 13:42:14;;;;;;;40.17;16.02;;;;;;;8.37;81.30;102513.30;1798263;79;21140;-83
2020/12/17 13:44:44;;;;;;;55.15;16.10;;;;;;;8.30;82.17;102511.32;1799776;79;21052;-84
2020/12/17 13:47:12;;;;;;;34.58;14.33;;;;;;;8.26;82.73;102510.99;1797315;78;22108;-84
2020/12/17 13:49:40;;;;;;;35.50;14.43;;;;;;;8.23;83.15;102517.98;1783523;78;21631;-84
2020/12/17 13:52:08;;;;;;;34.15;14.38;;;;;;;8.20;83.46;102511.13;1766015;80;21195;-83
2020/12/17 13:54:36;;;;;;;36.68;15.15;;;;;;;8.18;83.69;102521.97;1766064;80;21120;-84
2020/12/17 13:57:04;;;;;;;41.23;14.55;;;;;;;8.12;84.00;102510.50;1766308;80;21140;-83
2020/12/17 13:59:34;;;;;;;39.92;18.65;;;;;;;8.10;84.27;102509.70;1766642;80;21682;-82
2020/12/17 14:02:02;;;;;;;37.42;19.05;;;;;;;8.07;84.53;102511.08;1766200;81;20954;-81
2020/12/17 14:04:30;;;;;;;22.67;13.50;;;;;;;8.03;84.92;102513.77;1765660;80;21230;-79
2020/12/17 14:06:59;;;;;;;22.42;12.35;;;;;;;7.98;85.36;102510.84;1773577;79;20986;-81
2020/12/17 14:09:26;;;;;;;26.87;13.18;;;;;;;7.91;85.53;102513.66;1728057;83;21046;-83
2020/12/17 14:11:55;;;;;;;30.45;15.83;;;;;;;7.86;85.65;102514.19;1728042;83;21596;-82
2020/12/17 14:14:23;;;;;;;20.50;13.38;;;;;;;7.81;85.87;102514.77;1771916;80;21176;-81
2020/12/17 14:16:54;;;;;;;24.23;13.22;;;;;;;7.76;86.19;102516.59;1777841;80;21583;-81
2020/12/17 14:19:22;;;;;;;23.80;15.55;;;;;;;7.73;86.46;102519.26;1777377;80;21654;-82
2020/12/17 14:21:54;;;;;;;29.10;17.05;;;;;;;7.70;86.73;102515.46;1777667;80;21014;-82
2020/12/17 14:24:22;;;;;;;28.07;15.40;;;;;;;7.66;87.04;102519.85;1778196;80;21421;-83
2020/12/17 14:26:50;;;;;;;25.70;14.90;;;;;;;7.64;87.34;102523.36;1778309;80;20931;-83
2020/12/17 14:29:18;;;;;;;34.50;15.20;;;;;;;7.59;87.70;102522.20;1778640;80;21030;-83
2020/12/17 14:31:46;;;;;;;30.88;14.28;;;;;;;7.57;87.86;102523.95;1778353;79;21156;-82
2020/12/17 14:34:14;;;;;;;55.83;16.32;;;;;;;7.56;88.17;102522.72;1778247;80;21160;-84
2020/12/17 14:36:42;;;;;;;31.02;14.87;;;;;;;7.53;88.45;102531.36;1777783;79;21193;-82
2020/12/17 14:39:11;;;;;;;29.25;15.03;;;;;;;7.51;88.54;102527.98;1778332;80;21192;-83
2020/12/17 14:41:39;;;;;;;29.30;17.80;;;;;;;7.47;88.53;102527.63;1759826;81;20926;-83
2020/12/17 14:44:09;;;;;;;41.42;19.85;;;;;;;7.45;88.60;102535.44;1778609;80;21176;-83
2020/12/17 14:46:37;;;;;;;72.75;26.00;;;;;;;7.43;88.74;102535.89;1759764;81;21048;-83
2020/12/17 14:49:05;;;;;;;84.85;41.00;;;;;;;7.42;88.86;102535.51;1778596;80;21172;-83
2020/12/17 14:51:33;;;;;;;105.60;47.98;;;;;;;7.41;88.88;102536.82;1778440;80;21512;-84
2020/12/17 14:54:02;;;;;;;129.20;61.98;;;;;;;7.40;88.95;102540.31;1778544;80;20883;-83
2020/12/17 14:56:30;;;;;;;123.13;60.78;;;;;;;7.40;89.02;102545.48;1778512;80;20915;-84
2020/12/17 14:58:59;;;;;;;74.00;37.78;;;;;;;7.39;89.10;102548.50;1778391;80;21037;-83
2020/12/17 15:01:27;;;;;;;62.95;26.33;;;;;;;7.40;89.11;102542.42;1778681;80;21183;-83
2020/12/17 15:03:55;;;;;;;75.83;30.35;;;;;;;7.40;89.06;102542.89;1778400;80;21092;-84
2020/12/17 15:06:23;;;;;;;67.20;29.23;;;;;;;7.42;89.19;102548.42;1778522;80;21616;-84
2020/12/17 15:08:50;;;;;;;48.30;28.70;;;;;;;7.42;89.36;102547.56;1778194;80;21014;-84
2020/12/17 15:11:22;;;;;;;60.73;25.37;;;;;;;7.43;89.46;102548.80;1767162;80;21189;-86
2020/12/17 15:13:50;;;;;;;61.98;25.95;;;;;;;7.43;89.39;102541.53;1747420;82;21360;-86
2020/12/17 15:16:18;;;;;;;67.87;34.18;;;;;;;7.44;89.51;102549.23;1755814;81;21069;-86
2020/12/17 15:18:48;;;;;;;62.62;32.48;;;;;;;7.47;89.82;102546.19;1756897;81;20979;-86
2020/12/17 15:21:17;;;;;;;59.27;30.95;;;;;;;7.48;90.01;102543.55;1756713;81;21593;-86
2020/12/17 15:23:46;;;;;;;41.20;21.62;;;;;;;7.51;90.10;102549.94;1755636;81;21265;-86
2020/12/17 15:26:14;;;;;;;59.18;19.77;;;;;;;7.54;90.06;102545.13;1755922;81;22167;-86
2020/12/17 15:28:42;;;;;;;31.02;17.70;;;;;;;7.55;89.85;102543.82;1756008;81;21720;-86
2020/12/17 15:31:11;;;;;;;36.03;15.70;;;;;;;7.57;89.70;102548.50;1756974;81;21136;-85
2020/12/17 15:33:39;;;;;;;28.73;17.30;;;;;;;7.56;89.53;102550.70;1756783;81;21517;-84
2020/12/17 15:36:08;;;;;;;65.05;37.53;;;;;;;7.55;89.23;102562.34;1756779;81;21208;-86
2020/12/17 15:38:36;;;;;;;62.03;34.10;;;;;;;7.49;89.17;102555.59;1756702;81;21362;-86
2020/12/17 15:41:10;;;;;;;57.30;30.65;;;;;;;7.45;89.24;102559.97;1756788;81;21183;-86
2020/12/17 15:43:38;;;;;;;58.58;30.92;;;;;;;7.45;89.28;102559.12;1756876;81;21156;-86
2020/12/17 15:46:07;;;;;;;44.67;27.40;;;;;;;7.45;89.42;102563.84;1755782;81;21679;-86
2020/12/17 15:48:37;;;;;;;44.18;23.10;;;;;;;7.44;89.52;102557.41;1756919;81;20974;-85
2020/12/17 15:51:09;;;;;;;46.40;24.85;;;;;;;7.40;89.83;102563.09;1756656;81;21363;-85
2020/12/17 15:53:38;;;;;;;34.60;19.67;;;;;;;7.36;90.12;102561.48;1757093;81;21112;-85
2020/12/17 15:56:06;;;;;;;36.05;20.88;;;;;;;7.33;90.44;102564.13;1756989;81;21648;-84
2020/12/17 15:58:34;;;;;;;51.42;24.70;;;;;;;7.28;90.83;102565.95;1756829;81;21026;-83
2020/12/17 16:01:03;;;;;;;51.35;26.73;;;;;;;7.24;91.08;102565.59;1756764;81;21050;-84
2020/12/17 16:03:31;;;;;;;46.05;25.43;;;;;;;7.23;91.28;102565.65;1756858;81;21183;-83
2020/12/17 16:05:59;;;;;;;35.83;19.45;;;;;;;7.20;91.46;102566.58;1757010;81;21692;-84
2020/12/17 16:08:28;;;;;;;37.03;22.22;;;;;;;7.17;91.68;102570.52;1755460;81;21006;-82
2020/12/17 16:10:57;;;;;;;39.48;22.80;;;;;;;7.15;91.94;102573.98;1756912;81;20982;-84
2020/12/17 16:13:25;;;;;;;34.88;21.77;;;;;;;7.12;92.08;102565.87;1756774;81;21671;-84
2020/12/17 16:15:53;;;;;;;39.83;23.52;;;;;;;7.12;92.15;102568.45;1749540;81;21192;-85
2020/12/17 16:18:21;;;;;;;50.15;25.92;;;;;;;7.12;92.20;102563.29;1744674;81;21121;-84
2020/12/17 16:20:48;;;;;;;63.90;27.50;;;;;;;7.13;92.29;102561.56;1744763;82;21060;-84
